sensor_id;sensor_type;location;lat;lon;timestamp;P1;durP1;ratioP1;P2;durP2;ratioP2
2019;SDS011;1014;51.960;8.542;2023-05-16T00:02:21;37.83;;;35.27;;
2019;SDS011;1014;51.960;8.542;2023-05-16T00:04:50;37.63;;;35.00;;
2019;SDS011;1014;51.960;8.542;2023-05-16T00:07:17;39.07;;;36.37;;
2019;SDS011;1014;51.960;8.542;2023-05-16T00:09:44;38.87;;;36.43;;
2019;SDS011;1014;51.960;8.542;2023-05-16T00:12:11;36.93;;;34.30;;
2019;SDS011;1014;51.960;8.542;2023-05-16T00:14:38;38.83;;;36.27;;
2019;SDS011;1014;51.960;8.542;2023-05-16T00:17:05;37.80;;;35.40;;
2019;SDS011;1014;51.960;8.542;2023-05-16T00:19:35;37.27;;;35.07;;
2019;SDS011;1014;51.960;8.542;2023-05-16T00:22:04;39.30;;;36.67;;
2019;SDS011;1014;51.960;8.542;2023-05-16T00:24:31;37.87;;;35.30;;
2019;SDS011;1014;51.960;8.542;2023-05-16T00:26:58;37.37;;;34.93;;
2019;SDS011;1014;51.960;8.542;2023-05-16T00:29:25;34.80;;;32.33;;
2019;SDS011;1014;51.960;8.542;2023-05-16T00:31:52;36.93;;;34.47;;
2019;SDS011;1014;51.960;8.542;2023-05-16T00:34:19;36.13;;;33.73;;
2019;SDS011;1014;51.960;8.542;2023-05-16T00:36:46;35.27;;;32.63;;
2019;SDS011;1014;51.960;8.542;2023-05-16T00:39:15;34.93;;;32.20;;
2019;SDS011;1014;51.960;8.542;2023-05-16T00:41:42;35.37;;;33.07;;
2019;SDS011;1014;51.960;8.542;2023-05-16T00:44:09;33.60;;;31.43;;
2019;SDS011;1014;51.960;8.542;2023-05-16T00:46:36;34.30;;;32.00;;
2019;SDS011;1014;51.960;8.542;2023-05-16T00:49:03;31.90;;;29.80;;
2019;SDS011;1014;51.960;8.542;2023-05-16T00:51:31;34.20;;;31.90;;
2019;SDS011;1014;51.960;8.542;2023-05-16T00:53:58;29.93;;;28.03;;
2019;SDS011;1014;51.960;8.542;2023-05-16T00:56:26;34.30;;;31.90;;
2019;SDS011;1014;51.960;8.542;2023-05-16T00:58:53;32.53;;;30.33;;
2019;SDS011;1014;51.960;8.542;2023-05-16T01:01:20;33.17;;;30.80;;
2019;SDS011;1014;51.960;8.542;2023-05-16T01:03:48;32.30;;;29.07;;
2019;SDS011;1014;51.960;8.542;2023-05-16T01:06:15;30.87;;;28.73;;
2019;SDS011;1014;51.960;8.542;2023-05-16T01:08:42;32.33;;;30.13;;
2019;SDS011;1014;51.960;8.542;2023-05-16T01:11:11;30.40;;;28.50;;
2019;SDS011;1014;51.960;8.542;2023-05-16T01:13:43;32.37;;;30.37;;
2019;SDS011;1014;51.960;8.542;2023-05-16T01:16:16;31.53;;;29.13;;
2019;SDS011;1014;51.960;8.542;2023-05-16T01:18:50;28.77;;;26.77;;
2019;SDS011;1014;51.960;8.542;2023-05-16T01:21:18;27.10;;;25.37;;
2019;SDS011;1014;51.960;8.542;2023-05-16T01:23:48;28.90;;;26.60;;
2019;SDS011;1014;51.960;8.542;2023-05-16T01:26:19;26.83;;;24.87;;
2019;SDS011;1014;51.960;8.542;2023-05-16T01:28:48;26.87;;;25.27;;
2019;SDS011;1014;51.960;8.542;2023-05-16T01:31:15;25.47;;;23.83;;
2019;SDS011;1014;51.960;8.542;2023-05-16T01:33:42;26.20;;;24.60;;
2019;SDS011;1014;51.960;8.542;2023-05-16T01:36:10;25.33;;;23.83;;
2019;SDS011;1014;51.960;8.542;2023-05-16T01:38:38;24.93;;;23.43;;
2019;SDS011;1014;51.960;8.542;2023-05-16T01:41:07;24.17;;;22.67;;
2019;SDS011;1014;51.960;8.542;2023-05-16T01:43:41;23.60;;;22.27;;
2019;SDS011;1014;51.960;8.542;2023-05-16T01:46:09;24.67;;;23.07;;
2019;SDS011;1014;51.960;8.542;2023-05-16T01:48:38;23.43;;;22.17;;
2019;SDS011;1014;51.960;8.542;2023-05-16T01:51:08;23.10;;;21.90;;
2019;SDS011;1014;51.960;8.542;2023-05-16T01:53:37;22.67;;;21.53;;
2019;SDS011;1014;51.960;8.542;2023-05-16T01:56:06;22.83;;;21.63;;
2019;SDS011;1014;51.960;8.542;2023-05-16T01:58:34;21.77;;;20.67;;
2019;SDS011;1014;51.960;8.542;2023-05-16T02:01:04;22.47;;;21.37;;
2019;SDS011;1014;51.960;8.542;2023-05-16T02:03:32;22.10;;;21.10;;
2019;SDS011;1014;51.960;8.542;2023-05-16T02:05:59;22.20;;;21.20;;
2019;SDS011;1014;51.960;8.542;2023-05-16T02:08:26;24.33;;;23.07;;
2019;SDS011;1014;51.960;8.542;2023-05-16T02:10:54;22.97;;;21.80;;
2019;SDS011;1014;51.960;8.542;2023-05-16T02:13:20;24.27;;;23.07;;
2019;SDS011;1014;51.960;8.542;2023-05-16T02:15:47;22.97;;;21.97;;
2019;SDS011;1014;51.960;8.542;2023-05-16T02:18:16;26.47;;;25.07;;
2019;SDS011;1014;51.960;8.542;2023-05-16T02:20:43;27.73;;;26.23;;
2019;SDS011;1014;51.960;8.542;2023-05-16T02:23:11;26.27;;;24.73;;
2019;SDS011;1014;51.960;8.542;2023-05-16T02:25:38;28.63;;;26.70;;
2019;SDS011;1014;51.960;8.542;2023-05-16T02:28:05;26.60;;;25.30;;
2019;SDS011;1014;51.960;8.542;2023-05-16T02:30:32;26.40;;;24.80;;
2019;SDS011;1014;51.960;8.542;2023-05-16T02:32:59;25.00;;;23.70;;
2019;SDS011;1014;51.960;8.542;2023-05-16T02:35:27;26.23;;;24.77;;
2019;SDS011;1014;51.960;8.542;2023-05-16T02:37:55;27.43;;;26.03;;
2019;SDS011;1014;51.960;8.542;2023-05-16T02:40:22;24.43;;;23.27;;
2019;SDS011;1014;51.960;8.542;2023-05-16T02:42:49;24.77;;;22.83;;
2019;SDS011;1014;51.960;8.542;2023-05-16T02:45:16;26.20;;;24.37;;
2019;SDS011;1014;51.960;8.542;2023-05-16T02:47:43;23.80;;;22.60;;
2019;SDS011;1014;51.960;8.542;2023-05-16T02:50:10;26.87;;;24.80;;
2019;SDS011;1014;51.960;8.542;2023-05-16T02:52:38;25.70;;;23.90;;
2019;SDS011;1014;51.960;8.542;2023-05-16T02:55:06;24.10;;;22.80;;
2019;SDS011;1014;51.960;8.542;2023-05-16T02:57:33;24.63;;;22.90;;
2019;SDS011;1014;51.960;8.542;2023-05-16T03:00:00;24.20;;;22.63;;
2019;SDS011;1014;51.960;8.542;2023-05-16T03:02:30;23.40;;;21.90;;
2019;SDS011;1014;51.960;8.542;2023-05-16T03:04:56;25.13;;;23.40;;
2019;SDS011;1014;51.960;8.542;2023-05-16T03:07:23;23.97;;;22.20;;
2019;SDS011;1014;51.960;8.542;2023-05-16T03:09:52;23.27;;;21.83;;
2019;SDS011;1014;51.960;8.542;2023-05-16T03:12:19;23.90;;;22.30;;
2019;SDS011;1014;51.960;8.542;2023-05-16T03:14:46;25.53;;;23.70;;
2019;SDS011;1014;51.960;8.542;2023-05-16T03:17:13;24.60;;;23.03;;
2019;SDS011;1014;51.960;8.542;2023-05-16T03:19:40;24.00;;;22.20;;
2019;SDS011;1014;51.960;8.542;2023-05-16T03:22:07;22.70;;;21.40;;
2019;SDS011;1014;51.960;8.542;2023-05-16T03:24:34;21.57;;;20.07;;
2019;SDS011;1014;51.960;8.542;2023-05-16T03:27:03;22.87;;;21.40;;
2019;SDS011;1014;51.960;8.542;2023-05-16T03:29:30;21.27;;;20.00;;
2019;SDS011;1014;51.960;8.542;2023-05-16T03:31:57;21.00;;;19.70;;
2019;SDS011;1014;51.960;8.542;2023-05-16T03:34:24;21.80;;;20.23;;
2019;SDS011;1014;51.960;8.542;2023-05-16T03:36:52;22.30;;;20.63;;
2019;SDS011;1014;51.960;8.542;2023-05-16T03:39:19;21.60;;;20.30;;
2019;SDS011;1014;51.960;8.542;2023-05-16T03:41:46;21.10;;;19.43;;
2019;SDS011;1014;51.960;8.542;2023-05-16T03:44:14;21.17;;;19.60;;
2019;SDS011;1014;51.960;8.542;2023-05-16T03:46:41;21.50;;;20.03;;
2019;SDS011;1014;51.960;8.542;2023-05-16T03:49:08;22.63;;;21.20;;
2019;SDS011;1014;51.960;8.542;2023-05-16T03:51:35;20.10;;;18.77;;
2019;SDS011;1014;51.960;8.542;2023-05-16T03:54:02;19.90;;;18.60;;
2019;SDS011;1014;51.960;8.542;2023-05-16T03:56:30;20.50;;;19.30;;
2019;SDS011;1014;51.960;8.542;2023-05-16T03:58:57;19.20;;;17.97;;
2019;SDS011;1014;51.960;8.542;2023-05-16T04:01:25;20.43;;;18.50;;
2019;SDS011;1014;51.960;8.542;2023-05-16T04:03:52;19.77;;;18.10;;
2019;SDS011;1014;51.960;8.542;2023-05-16T04:06:19;19.90;;;18.53;;
2019;SDS011;1014;51.960;8.542;2023-05-16T04:08:46;18.40;;;17.33;;
2019;SDS011;1014;51.960;8.542;2023-05-16T04:11:13;19.13;;;18.03;;
2019;SDS011;1014;51.960;8.542;2023-05-16T04:13:40;19.57;;;17.97;;
2019;SDS011;1014;51.960;8.542;2023-05-16T04:16:07;17.67;;;16.73;;
2019;SDS011;1014;51.960;8.542;2023-05-16T04:18:36;19.53;;;17.87;;
2019;SDS011;1014;51.960;8.542;2023-05-16T04:21:03;18.47;;;16.90;;
2019;SDS011;1014;51.960;8.542;2023-05-16T04:23:31;19.20;;;18.07;;
2019;SDS011;1014;51.960;8.542;2023-05-16T04:25:58;19.80;;;18.30;;
2019;SDS011;1014;51.960;8.542;2023-05-16T04:28:26;18.43;;;17.17;;
2019;SDS011;1014;51.960;8.542;2023-05-16T04:30:53;20.40;;;18.40;;
2019;SDS011;1014;51.960;8.542;2023-05-16T04:33:20;21.40;;;18.57;;
2019;SDS011;1014;51.960;8.542;2023-05-16T04:35:48;20.13;;;18.23;;
2019;SDS011;1014;51.960;8.542;2023-05-16T04:38:17;19.13;;;17.70;;
2019;SDS011;1014;51.960;8.542;2023-05-16T04:40:44;19.90;;;18.63;;
2019;SDS011;1014;51.960;8.542;2023-05-16T04:43:14;19.93;;;18.40;;
2019;SDS011;1014;51.960;8.542;2023-05-16T04:45:41;20.07;;;18.57;;
2019;SDS011;1014;51.960;8.542;2023-05-16T04:48:08;20.47;;;18.57;;
2019;SDS011;1014;51.960;8.542;2023-05-16T04:50:35;20.57;;;18.37;;
2019;SDS011;1014;51.960;8.542;2023-05-16T04:53:03;20.93;;;19.10;;
2019;SDS011;1014;51.960;8.542;2023-05-16T04:55:30;22.40;;;20.10;;
2019;SDS011;1014;51.960;8.542;2023-05-16T04:57:57;20.00;;;18.17;;
2019;SDS011;1014;51.960;8.542;2023-05-16T05:00:24;20.93;;;19.03;;
2019;SDS011;1014;51.960;8.542;2023-05-16T05:02:52;20.20;;;18.50;;
2019;SDS011;1014;51.960;8.542;2023-05-16T05:05:19;21.07;;;19.33;;
2019;SDS011;1014;51.960;8.542;2023-05-16T05:07:46;19.47;;;17.77;;
2019;SDS011;1014;51.960;8.542;2023-05-16T05:10:14;19.10;;;17.60;;
2019;SDS011;1014;51.960;8.542;2023-05-16T05:12:42;20.17;;;18.47;;
2019;SDS011;1014;51.960;8.542;2023-05-16T05:15:09;20.50;;;19.07;;
2019;SDS011;1014;51.960;8.542;2023-05-16T05:17:37;19.97;;;18.47;;
2019;SDS011;1014;51.960;8.542;2023-05-16T05:20:05;21.43;;;19.27;;
2019;SDS011;1014;51.960;8.542;2023-05-16T05:22:32;19.40;;;18.00;;
2019;SDS011;1014;51.960;8.542;2023-05-16T05:24:59;19.27;;;17.80;;
2019;SDS011;1014;51.960;8.542;2023-05-16T05:27:28;20.23;;;18.57;;
2019;SDS011;1014;51.960;8.542;2023-05-16T05:29:55;19.93;;;18.20;;
2019;SDS011;1014;51.960;8.542;2023-05-16T05:32:22;27.63;;;19.30;;
2019;SDS011;1014;51.960;8.542;2023-05-16T05:34:49;20.60;;;18.60;;
2019;SDS011;1014;51.960;8.542;2023-05-16T05:37:16;19.83;;;18.20;;
2019;SDS011;1014;51.960;8.542;2023-05-16T05:39:43;20.13;;;18.47;;
2019;SDS011;1014;51.960;8.542;2023-05-16T05:42:10;21.00;;;18.97;;
2019;SDS011;1014;51.960;8.542;2023-05-16T05:44:39;19.83;;;18.23;;
2019;SDS011;1014;51.960;8.542;2023-05-16T05:47:06;22.27;;;19.90;;
2019;SDS011;1014;51.960;8.542;2023-05-16T05:49:33;20.17;;;18.27;;
2019;SDS011;1014;51.960;8.542;2023-05-16T05:52:00;20.70;;;18.60;;
2019;SDS011;1014;51.960;8.542;2023-05-16T05:54:27;19.50;;;18.13;;
2019;SDS011;1014;51.960;8.542;2023-05-16T05:56:55;20.97;;;19.00;;
2019;SDS011;1014;51.960;8.542;2023-05-16T05:59:22;21.47;;;18.60;;
2019;SDS011;1014;51.960;8.542;2023-05-16T06:01:50;21.00;;;19.20;;
2019;SDS011;1014;51.960;8.542;2023-05-16T06:04:17;21.90;;;19.87;;
2019;SDS011;1014;51.960;8.542;2023-05-16T06:06:44;20.70;;;19.10;;
2019;SDS011;1014;51.960;8.542;2023-05-16T06:09:12;20.83;;;19.07;;
2019;SDS011;1014;51.960;8.542;2023-05-16T06:11:39;20.37;;;18.77;;
2019;SDS011;1014;51.960;8.542;2023-05-16T06:14:07;19.73;;;18.20;;
2019;SDS011;1014;51.960;8.542;2023-05-16T06:16:34;21.27;;;19.13;;
2019;SDS011;1014;51.960;8.542;2023-05-16T06:19:04;21.20;;;19.60;;
2019;SDS011;1014;51.960;8.542;2023-05-16T06:21:31;20.10;;;18.63;;
2019;SDS011;1014;51.960;8.542;2023-05-16T06:23:58;19.87;;;18.67;;
2019;SDS011;1014;51.960;8.542;2023-05-16T06:26:25;20.37;;;18.83;;
2019;SDS011;1014;51.960;8.542;2023-05-16T06:28:52;24.03;;;20.37;;
2019;SDS011;1014;51.960;8.542;2023-05-16T06:31:19;22.33;;;20.33;;
2019;SDS011;1014;51.960;8.542;2023-05-16T06:33:46;21.90;;;20.00;;
2019;SDS011;1014;51.960;8.542;2023-05-16T06:36:15;20.40;;;18.80;;
2019;SDS011;1014;51.960;8.542;2023-05-16T06:38:42;21.17;;;19.50;;
2019;SDS011;1014;51.960;8.542;2023-05-16T06:41:09;23.00;;;19.50;;
2019;SDS011;1014;51.960;8.542;2023-05-16T06:43:36;20.17;;;18.50;;
2019;SDS011;1014;51.960;8.542;2023-05-16T06:46:03;20.60;;;19.30;;
2019;SDS011;1014;51.960;8.542;2023-05-16T06:48:30;22.23;;;20.43;;
2019;SDS011;1014;51.960;8.542;2023-05-16T06:50:57;21.33;;;19.63;;
2019;SDS011;1014;51.960;8.542;2023-05-16T06:53:26;22.20;;;20.10;;
2019;SDS011;1014;51.960;8.542;2023-05-16T06:55:53;23.43;;;21.33;;
2019;SDS011;1014;51.960;8.542;2023-05-16T06:58:20;21.40;;;19.63;;
2019;SDS011;1014;51.960;8.542;2023-05-16T07:00:47;21.37;;;19.60;;
2019;SDS011;1014;51.960;8.542;2023-05-16T07:03:15;22.57;;;20.50;;
2019;SDS011;1014;51.960;8.542;2023-05-16T07:05:42;21.03;;;18.90;;
2019;SDS011;1014;51.960;8.542;2023-05-16T07:08:09;22.90;;;19.93;;
2019;SDS011;1014;51.960;8.542;2023-05-16T07:10:38;21.43;;;19.70;;
2019;SDS011;1014;51.960;8.542;2023-05-16T07:13:05;21.50;;;20.20;;
2019;SDS011;1014;51.960;8.542;2023-05-16T07:15:32;21.37;;;19.50;;
2019;SDS011;1014;51.960;8.542;2023-05-16T07:17:59;20.70;;;19.20;;
2019;SDS011;1014;51.960;8.542;2023-05-16T07:20:26;21.63;;;19.83;;
2019;SDS011;1014;51.960;8.542;2023-05-16T07:22:53;20.67;;;19.17;;
2019;SDS011;1014;51.960;8.542;2023-05-16T07:25:21;20.63;;;19.00;;
2019;SDS011;1014;51.960;8.542;2023-05-16T07:27:50;21.00;;;19.37;;
2019;SDS011;1014;51.960;8.542;2023-05-16T07:30:17;22.93;;;19.67;;
2019;SDS011;1014;51.960;8.542;2023-05-16T07:32:44;20.87;;;19.43;;
2019;SDS011;1014;51.960;8.542;2023-05-16T07:35:11;23.03;;;20.97;;
2019;SDS011;1014;51.960;8.542;2023-05-16T07:37:38;21.97;;;20.30;;
2019;SDS011;1014;51.960;8.542;2023-05-16T07:40:08;22.40;;;20.50;;
2019;SDS011;1014;51.960;8.542;2023-05-16T07:42:35;21.93;;;20.07;;
2019;SDS011;1014;51.960;8.542;2023-05-16T07:45:04;23.17;;;21.27;;
2019;SDS011;1014;51.960;8.542;2023-05-16T07:47:32;21.53;;;19.83;;
2019;SDS011;1014;51.960;8.542;2023-05-16T07:49:59;21.43;;;19.90;;
2019;SDS011;1014;51.960;8.542;2023-05-16T07:52:26;22.57;;;20.87;;
2019;SDS011;1014;51.960;8.542;2023-05-16T07:54:53;21.93;;;20.53;;
2019;SDS011;1014;51.960;8.542;2023-05-16T07:57:20;23.03;;;21.23;;
2019;SDS011;1014;51.960;8.542;2023-05-16T07:59:47;22.70;;;21.17;;
2019;SDS011;1014;51.960;8.542;2023-05-16T08:02:18;22.30;;;20.90;;
2019;SDS011;1014;51.960;8.542;2023-05-16T08:04:45;21.37;;;20.17;;
2019;SDS011;1014;51.960;8.542;2023-05-16T08:07:12;22.40;;;21.00;;
2019;SDS011;1014;51.960;8.542;2023-05-16T08:09:39;22.60;;;21.27;;
2019;SDS011;1014;51.960;8.542;2023-05-16T08:12:07;23.43;;;21.17;;
2019;SDS011;1014;51.960;8.542;2023-05-16T08:14:34;23.23;;;20.97;;
2019;SDS011;1014;51.960;8.542;2023-05-16T08:17:02;23.53;;;21.30;;
2019;SDS011;1014;51.960;8.542;2023-05-16T08:19:30;23.20;;;21.27;;
2019;SDS011;1014;51.960;8.542;2023-05-16T08:21:57;22.13;;;20.63;;
2019;SDS011;1014;51.960;8.542;2023-05-16T08:24:24;22.73;;;20.70;;
2019;SDS011;1014;51.960;8.542;2023-05-16T08:26:51;22.20;;;20.60;;
2019;SDS011;1014;51.960;8.542;2023-05-16T08:29:18;22.27;;;20.63;;
2019;SDS011;1014;51.960;8.542;2023-05-16T08:31:46;23.10;;;21.30;;
2019;SDS011;1014;51.960;8.542;2023-05-16T08:34:13;21.87;;;20.37;;
2019;SDS011;1014;51.960;8.542;2023-05-16T08:36:41;20.83;;;19.53;;
2019;SDS011;1014;51.960;8.542;2023-05-16T08:39:09;22.77;;;21.27;;
2019;SDS011;1014;51.960;8.542;2023-05-16T08:41:36;22.50;;;20.83;;
2019;SDS011;1014;51.960;8.542;2023-05-16T08:44:03;23.00;;;21.30;;
2019;SDS011;1014;51.960;8.542;2023-05-16T08:46:31;22.57;;;21.17;;
2019;SDS011;1014;51.960;8.542;2023-05-16T08:48:59;23.00;;;21.30;;
2019;SDS011;1014;51.960;8.542;2023-05-16T08:51:30;24.00;;;22.20;;
2019;SDS011;1014;51.960;8.542;2023-05-16T08:54:01;22.70;;;21.17;;
2019;SDS011;1014;51.960;8.542;2023-05-16T08:56:29;23.70;;;21.63;;
2019;SDS011;1014;51.960;8.542;2023-05-16T08:58:57;23.20;;;21.90;;
2019;SDS011;1014;51.960;8.542;2023-05-16T09:01:24;22.93;;;21.33;;
2019;SDS011;1014;51.960;8.542;2023-05-16T09:03:51;23.10;;;21.43;;
2019;SDS011;1014;51.960;8.542;2023-05-16T09:06:19;22.57;;;21.03;;
2019;SDS011;1014;51.960;8.542;2023-05-16T09:08:46;23.43;;;21.50;;
2019;SDS011;1014;51.960;8.542;2023-05-16T09:11:14;21.83;;;20.13;;
2019;SDS011;1014;51.960;8.542;2023-05-16T09:13:41;22.37;;;20.87;;
2019;SDS011;1014;51.960;8.542;2023-05-16T09:16:09;23.53;;;21.53;;
2019;SDS011;1014;51.960;8.542;2023-05-16T09:18:36;21.13;;;19.63;;
2019;SDS011;1014;51.960;8.542;2023-05-16T09:21:04;21.83;;;20.27;;
2019;SDS011;1014;51.960;8.542;2023-05-16T09:23:31;23.23;;;21.73;;
2019;SDS011;1014;51.960;8.542;2023-05-16T09:25:58;24.33;;;22.40;;
2019;SDS011;1014;51.960;8.542;2023-05-16T09:28:27;22.97;;;21.37;;
2019;SDS011;1014;51.960;8.542;2023-05-16T09:30:54;23.53;;;21.90;;
2019;SDS011;1014;51.960;8.542;2023-05-16T09:33:24;24.60;;;22.00;;
2019;SDS011;1014;51.960;8.542;2023-05-16T09:35:55;23.23;;;21.60;;
2019;SDS011;1014;51.960;8.542;2023-05-16T09:38:23;22.40;;;21.10;;
2019;SDS011;1014;51.960;8.542;2023-05-16T09:40:50;22.43;;;20.87;;
2019;SDS011;1014;51.960;8.542;2023-05-16T09:43:20;22.53;;;20.97;;
2019;SDS011;1014;51.960;8.542;2023-05-16T09:45:49;22.60;;;21.00;;
2019;SDS011;1014;51.960;8.542;2023-05-16T09:48:16;22.40;;;20.67;;
2019;SDS011;1014;51.960;8.542;2023-05-16T09:50:47;23.27;;;21.87;;
2019;SDS011;1014;51.960;8.542;2023-05-16T09:53:16;22.87;;;21.43;;
2019;SDS011;1014;51.960;8.542;2023-05-16T09:55:43;24.33;;;22.23;;
2019;SDS011;1014;51.960;8.542;2023-05-16T09:58:10;21.97;;;20.67;;
2019;SDS011;1014;51.960;8.542;2023-05-16T10:00:37;22.30;;;20.50;;
2019;SDS011;1014;51.960;8.542;2023-05-16T10:03:06;23.20;;;21.70;;
2019;SDS011;1014;51.960;8.542;2023-05-16T10:05:34;24.03;;;22.27;;
2019;SDS011;1014;51.960;8.542;2023-05-16T10:08:01;23.30;;;21.43;;
2019;SDS011;1014;51.960;8.542;2023-05-16T10:10:30;22.00;;;20.70;;
2019;SDS011;1014;51.960;8.542;2023-05-16T10:12:58;23.23;;;21.73;;
2019;SDS011;1014;51.960;8.542;2023-05-16T10:15:25;23.20;;;21.70;;
2019;SDS011;1014;51.960;8.542;2023-05-16T10:17:53;23.43;;;21.50;;
2019;SDS011;1014;51.960;8.542;2023-05-16T10:20:24;22.03;;;20.47;;
2019;SDS011;1014;51.960;8.542;2023-05-16T10:22:52;23.27;;;21.87;;
2019;SDS011;1014;51.960;8.542;2023-05-16T10:25:23;23.13;;;21.53;;
2019;SDS011;1014;51.960;8.542;2023-05-16T10:27:51;23.37;;;21.97;;
2019;SDS011;1014;51.960;8.542;2023-05-16T10:30:18;23.17;;;21.60;;
2019;SDS011;1014;51.960;8.542;2023-05-16T10:32:45;22.03;;;20.73;;
2019;SDS011;1014;51.960;8.542;2023-05-16T10:35:13;22.50;;;21.13;;
2019;SDS011;1014;51.960;8.542;2023-05-16T10:37:41;22.80;;;21.40;;
2019;SDS011;1014;51.960;8.542;2023-05-16T10:40:09;25.63;;;23.23;;
2019;SDS011;1014;51.960;8.542;2023-05-16T10:42:36;23.00;;;21.33;;
2019;SDS011;1014;51.960;8.542;2023-05-16T10:45:15;24.17;;;22.47;;
2019;SDS011;1014;51.960;8.542;2023-05-16T10:47:49;23.73;;;22.20;;
2019;SDS011;1014;51.960;8.542;2023-05-16T10:50:29;24.43;;;22.83;;
2019;SDS011;1014;51.960;8.542;2023-05-16T10:52:58;23.13;;;21.83;;
2019;SDS011;1014;51.960;8.542;2023-05-16T10:55:37;22.70;;;21.40;;
2019;SDS011;1014;51.960;8.542;2023-05-16T10:58:04;21.83;;;20.60;;
2019;SDS011;1014;51.960;8.542;2023-05-16T11:00:31;22.40;;;21.00;;
2019;SDS011;1014;51.960;8.542;2023-05-16T11:03:03;23.77;;;22.27;;
2019;SDS011;1014;51.960;8.542;2023-05-16T11:05:30;21.57;;;20.37;;
2019;SDS011;1014;51.960;8.542;2023-05-16T11:08:03;23.60;;;21.70;;
2019;SDS011;1014;51.960;8.542;2023-05-16T11:10:31;22.90;;;21.60;;
2019;SDS011;1014;51.960;8.542;2023-05-16T11:13:01;23.50;;;21.93;;
2019;SDS011;1014;51.960;8.542;2023-05-16T11:15:30;23.20;;;21.63;;
2019;SDS011;1014;51.960;8.542;2023-05-16T11:18:05;22.47;;;21.07;;
2019;SDS011;1014;51.960;8.542;2023-05-16T11:20:33;23.17;;;21.57;;
2019;SDS011;1014;51.960;8.542;2023-05-16T11:23:18;22.40;;;21.00;;
2019;SDS011;1014;51.960;8.542;2023-05-16T11:25:46;23.00;;;21.47;;
2019;SDS011;1014;51.960;8.542;2023-05-16T11:28:14;22.17;;;20.83;;
2019;SDS011;1014;51.960;8.542;2023-05-16T11:30:42;23.83;;;21.93;;
2019;SDS011;1014;51.960;8.542;2023-05-16T11:33:09;22.70;;;21.43;;
2019;SDS011;1014;51.960;8.542;2023-05-16T11:35:37;21.17;;;19.87;;
2019;SDS011;1014;51.960;8.542;2023-05-16T11:38:04;22.43;;;21.00;;
2019;SDS011;1014;51.960;8.542;2023-05-16T11:40:33;21.90;;;20.37;;
2019;SDS011;1014;51.960;8.542;2023-05-16T11:43:00;21.60;;;20.27;;
2019;SDS011;1014;51.960;8.542;2023-05-16T11:45:27;21.57;;;20.17;;
2019;SDS011;1014;51.960;8.542;2023-05-16T11:47:59;21.93;;;20.63;;
2019;SDS011;1014;51.960;8.542;2023-05-16T11:50:28;22.70;;;21.03;;
2019;SDS011;1014;51.960;8.542;2023-05-16T11:52:55;22.83;;;21.30;;
2019;SDS011;1014;51.960;8.542;2023-05-16T11:55:23;22.97;;;21.57;;
2019;SDS011;1014;51.960;8.542;2023-05-16T11:57:51;22.57;;;21.20;;
2019;SDS011;1014;51.960;8.542;2023-05-16T12:00:19;22.23;;;20.83;;
2019;SDS011;1014;51.960;8.542;2023-05-16T12:02:48;22.00;;;20.63;;
2019;SDS011;1014;51.960;8.542;2023-05-16T12:05:16;22.10;;;20.60;;
2019;SDS011;1014;51.960;8.542;2023-05-16T12:07:44;22.23;;;20.57;;
2019;SDS011;1014;51.960;8.542;2023-05-16T12:10:13;23.30;;;22.00;;
2019;SDS011;1014;51.960;8.542;2023-05-16T12:12:41;22.10;;;20.60;;
2019;SDS011;1014;51.960;8.542;2023-05-16T12:15:10;22.40;;;21.00;;
2019;SDS011;1014;51.960;8.542;2023-05-16T12:17:38;21.87;;;20.37;;
2019;SDS011;1014;51.960;8.542;2023-05-16T12:20:06;22.73;;;21.00;;
2019;SDS011;1014;51.960;8.542;2023-05-16T12:22:38;21.80;;;20.37;;
2019;SDS011;1014;51.960;8.542;2023-05-16T12:25:21;22.97;;;21.20;;
2019;SDS011;1014;51.960;8.542;2023-05-16T12:27:48;23.40;;;21.77;;
2019;SDS011;1014;51.960;8.542;2023-05-16T12:30:17;23.90;;;22.07;;
2019;SDS011;1014;51.960;8.542;2023-05-16T12:32:44;24.53;;;22.87;;
2019;SDS011;1014;51.960;8.542;2023-05-16T12:35:11;21.57;;;20.37;;
2019;SDS011;1014;51.960;8.542;2023-05-16T12:37:38;21.90;;;20.60;;
2019;SDS011;1014;51.960;8.542;2023-05-16T12:40:05;23.00;;;21.60;;
2019;SDS011;1014;51.960;8.542;2023-05-16T12:42:36;22.77;;;21.27;;
2019;SDS011;1014;51.960;8.542;2023-05-16T12:45:03;22.87;;;21.37;;
2019;SDS011;1014;51.960;8.542;2023-05-16T12:47:35;22.10;;;20.60;;
2019;SDS011;1014;51.960;8.542;2023-05-16T12:50:07;22.50;;;20.90;;
2019;SDS011;1014;51.960;8.542;2023-05-16T12:52:36;22.43;;;21.03;;
2019;SDS011;1014;51.960;8.542;2023-05-16T12:55:03;22.30;;;20.90;;
2019;SDS011;1014;51.960;8.542;2023-05-16T12:57:30;23.80;;;22.17;;
2019;SDS011;1014;51.960;8.542;2023-05-16T12:59:57;23.10;;;21.50;;
2019;SDS011;1014;51.960;8.542;2023-05-16T13:02:25;22.27;;;20.80;;
2019;SDS011;1014;51.960;8.542;2023-05-16T13:04:54;23.00;;;21.47;;
2019;SDS011;1014;51.960;8.542;2023-05-16T13:07:21;21.93;;;20.47;;
2019;SDS011;1014;51.960;8.542;2023-05-16T13:09:48;21.90;;;20.40;;
2019;SDS011;1014;51.960;8.542;2023-05-16T13:12:15;22.57;;;21.17;;
2019;SDS011;1014;51.960;8.542;2023-05-16T13:14:42;21.37;;;20.07;;
2019;SDS011;1014;51.960;8.542;2023-05-16T13:17:09;23.10;;;21.60;;
2019;SDS011;1014;51.960;8.542;2023-05-16T13:19:36;22.10;;;20.70;;
2019;SDS011;1014;51.960;8.542;2023-05-16T13:22:05;21.83;;;20.53;;
2019;SDS011;1014;51.960;8.542;2023-05-16T13:24:32;22.57;;;20.97;;
2019;SDS011;1014;51.960;8.542;2023-05-16T13:26:59;22.37;;;20.97;;
2019;SDS011;1014;51.960;8.542;2023-05-16T13:29:26;21.87;;;20.53;;
2019;SDS011;1014;51.960;8.542;2023-05-16T13:31:53;22.80;;;21.30;;
2019;SDS011;1014;51.960;8.542;2023-05-16T13:34:20;23.80;;;22.17;;
2019;SDS011;1014;51.960;8.542;2023-05-16T13:36:47;23.57;;;21.63;;
2019;SDS011;1014;51.960;8.542;2023-05-16T13:39:15;24.00;;;22.47;;
2019;SDS011;1014;51.960;8.542;2023-05-16T13:41:42;23.87;;;22.37;;
2019;SDS011;1014;51.960;8.542;2023-05-16T13:44:09;23.80;;;22.30;;
2019;SDS011;1014;51.960;8.542;2023-05-16T13:46:36;23.90;;;22.00;;
2019;SDS011;1014;51.960;8.542;2023-05-16T13:49:03;23.17;;;21.50;;
2019;SDS011;1014;51.960;8.542;2023-05-16T13:51:31;22.13;;;20.77;;
2019;SDS011;1014;51.960;8.542;2023-05-16T13:53:58;22.67;;;21.10;;
2019;SDS011;1014;51.960;8.542;2023-05-16T13:56:26;22.67;;;21.17;;
2019;SDS011;1014;51.960;8.542;2023-05-16T13:58:53;21.60;;;20.30;;
2019;SDS011;1014;51.960;8.542;2023-05-16T14:01:20;22.00;;;20.60;;
2019;SDS011;1014;51.960;8.542;2023-05-16T14:03:47;21.90;;;20.50;;
2019;SDS011;1014;51.960;8.542;2023-05-16T14:06:14;22.20;;;20.90;;
2019;SDS011;1014;51.960;8.542;2023-05-16T14:08:41;22.13;;;20.73;;
2019;SDS011;1014;51.960;8.542;2023-05-16T14:11:08;23.13;;;21.43;;
2019;SDS011;1014;51.960;8.542;2023-05-16T14:13:36;22.63;;;21.17;;
2019;SDS011;1014;51.960;8.542;2023-05-16T14:16:04;23.57;;;21.90;;
2019;SDS011;1014;51.960;8.542;2023-05-16T14:18:31;23.40;;;21.90;;
2019;SDS011;1014;51.960;8.542;2023-05-16T14:20:58;22.90;;;21.13;;
2019;SDS011;1014;51.960;8.542;2023-05-16T14:23:26;21.87;;;20.57;;
2019;SDS011;1014;51.960;8.542;2023-05-16T14:25:53;21.77;;;20.57;;
2019;SDS011;1014;51.960;8.542;2023-05-16T14:28:20;21.97;;;20.57;;
2019;SDS011;1014;51.960;8.542;2023-05-16T14:30:48;22.83;;;20.77;;
2019;SDS011;1014;51.960;8.542;2023-05-16T14:33:15;21.83;;;20.40;;
2019;SDS011;1014;51.960;8.542;2023-05-16T14:35:42;23.47;;;21.60;;
2019;SDS011;1014;51.960;8.542;2023-05-16T14:38:09;22.80;;;21.10;;
2019;SDS011;1014;51.960;8.542;2023-05-16T14:40:36;23.00;;;21.70;;
2019;SDS011;1014;51.960;8.542;2023-05-16T14:43:03;22.53;;;21.03;;
2019;SDS011;1014;51.960;8.542;2023-05-16T14:45:31;22.50;;;21.00;;
2019;SDS011;1014;51.960;8.542;2023-05-16T14:47:59;23.83;;;22.07;;
2019;SDS011;1014;51.960;8.542;2023-05-16T14:50:27;22.80;;;21.07;;
2019;SDS011;1014;51.960;8.542;2023-05-16T14:52:54;22.13;;;20.73;;